createdAt,value
2017-12-01T00:00:45.118Z,85.20
2017-12-01T00:03:16.177Z,85.10
2017-12-01T00:05:45.906Z,85.10
2017-12-01T00:08:15.677Z,85.10
2017-12-01T00:10:45.385Z,85.20
2017-12-01T00:13:15.220Z,85.10
2017-12-01T00:15:45.017Z,85.10
2017-12-01T00:18:14.647Z,85.00
2017-12-01T00:20:45.254Z,85.70
2017-12-01T00:23:14.881Z,85.00
2017-12-01T00:25:45.196Z,85.00
2017-12-01T00:28:14.954Z,85.00
2017-12-01T00:30:44.976Z,84.80
2017-12-01T00:33:14.941Z,84.80
2017-12-01T00:35:44.982Z,84.70
2017-12-01T00:38:14.566Z,84.70
2017-12-01T00:40:45.543Z,85.10
2017-12-01T00:43:15.173Z,84.60
2017-12-01T00:45:45.207Z,84.60
2017-12-01T00:48:14.922Z,84.50
2017-12-01T00:50:44.543Z,84.30
2017-12-01T00:53:14.269Z,84.50
2017-12-01T00:55:44.866Z,84.40
2017-12-01T00:58:15.189Z,84.40
2017-12-01T01:00:45.599Z,84.50
2017-12-01T01:03:16.664Z,84.40
2017-12-01T01:05:47.596Z,84.30
2017-12-01T01:08:17.629Z,84.50
2017-12-01T01:10:47.385Z,84.40
2017-12-01T01:13:17.394Z,84.50
2017-12-01T01:15:47.303Z,84.40
2017-12-01T01:18:17.308Z,84.30
2017-12-01T01:20:47.809Z,83.70
2017-12-01T01:23:17.607Z,84.30
2017-12-01T01:25:47.317Z,84.40
2017-12-01T01:28:16.944Z,84.30
2017-12-01T01:30:47.357Z,85.00
2017-12-01T01:33:18.491Z,84.20
2017-12-01T01:35:49.094Z,84.10
2017-12-01T01:38:19.429Z,84.30
2017-12-01T01:40:49.877Z,84.10
2017-12-01T01:43:19.787Z,84.20
2017-12-01T01:45:49.621Z,84.20
2017-12-01T01:48:19.448Z,84.30
2017-12-01T01:50:49.060Z,84.10
2017-12-01T01:53:20.277Z,84.20
2017-12-01T01:55:49.947Z,84.10
2017-12-01T01:58:19.864Z,84.20
2017-12-01T02:00:49.545Z,84.30
2017-12-01T02:03:19.636Z,84.50
2017-12-01T02:05:49.340Z,84.40
2017-12-01T02:08:19.748Z,85.20
2017-12-01T02:10:59.446Z,84.60
2017-12-01T02:13:30.027Z,84.50
2017-12-01T02:15:59.945Z,84.60
2017-12-01T02:18:30.258Z,84.60
2017-12-01T02:21:01.381Z,84.70
2017-12-01T02:23:31.405Z,84.60
2017-12-01T02:26:01.210Z,84.60
2017-12-01T02:28:31.962Z,84.70
2017-12-01T02:31:01.588Z,84.70
2017-12-01T02:33:31.213Z,84.80
2017-12-01T02:36:00.861Z,84.90
2017-12-01T02:38:30.596Z,84.90
2017-12-01T02:41:00.510Z,85.00
2017-12-01T02:43:30.362Z,85.00
2017-12-01T02:46:00.952Z,84.80
2017-12-01T02:48:30.662Z,84.90
2017-12-01T02:51:02.549Z,85.00
2017-12-01T02:53:33.291Z,84.80
2017-12-01T02:56:04.023Z,84.90
2017-12-01T02:58:34.253Z,84.90
2017-12-01T03:01:03.920Z,84.90
2017-12-01T03:03:33.640Z,85.00
2017-12-01T03:06:03.462Z,84.90
2017-12-01T03:08:33.385Z,84.90
2017-12-01T03:11:03.370Z,85.20
2017-12-01T03:13:33.489Z,85.00
2017-12-01T03:16:03.198Z,85.00
2017-12-01T03:18:33.053Z,85.10
2017-12-01T03:21:02.823Z,85.10
2017-12-01T03:23:32.452Z,85.00
2017-12-01T03:26:02.976Z,85.50
2017-12-01T03:28:32.592Z,85.10
2017-12-01T03:31:02.598Z,85.10
2017-12-01T03:33:33.009Z,85.00
2017-12-01T03:36:03.060Z,85.10
2017-12-01T03:38:32.838Z,85.10
2017-12-01T03:41:02.992Z,85.10
2017-12-01T03:43:32.659Z,85.10
2017-12-01T03:46:02.501Z,85.10
2017-12-01T03:48:33.636Z,85.20
2017-12-01T03:51:03.256Z,85.10
2017-12-01T03:53:33.140Z,85.10
2017-12-01T03:56:02.768Z,85.10
2017-12-01T03:58:32.558Z,85.20
2017-12-01T04:01:02.476Z,85.90
2017-12-01T04:03:32.312Z,85.10
2017-12-01T04:06:02.763Z,85.00
2017-12-01T04:08:32.550Z,85.00
2017-12-01T04:11:03.278Z,85.00
2017-12-01T04:13:33.069Z,85.00
2017-12-01T04:16:02.904Z,85.00
2017-12-01T04:18:33.633Z,85.00
2017-12-01T04:21:04.039Z,85.10
2017-12-01T04:23:34.364Z,84.90
2017-12-01T04:26:04.248Z,85.00
2017-12-01T04:28:34.724Z,84.90
2017-12-01T04:31:04.424Z,85.00
2017-12-01T04:33:34.354Z,85.00
2017-12-01T04:36:04.960Z,85.00
2017-12-01T04:38:36.116Z,85.00
2017-12-01T04:41:05.829Z,85.00
2017-12-01T04:43:35.705Z,85.00
2017-12-01T04:46:05.637Z,85.00
2017-12-01T04:48:35.985Z,85.10
2017-12-01T04:51:05.683Z,85.10
2017-12-01T04:53:35.789Z,85.00
2017-12-01T04:56:05.499Z,85.00
2017-12-01T04:58:35.344Z,85.10
2017-12-01T05:01:05.251Z,85.00
2017-12-01T05:03:36.827Z,85.10
2017-12-01T05:06:06.792Z,85.00
2017-12-01T05:08:36.707Z,85.00
2017-12-01T05:11:06.365Z,85.00
2017-12-01T05:13:36.536Z,84.90
2017-12-01T05:16:06.661Z,85.10
2017-12-01T05:18:36.336Z,85.00
2017-12-01T05:21:06.124Z,85.10
2017-12-01T05:23:36.806Z,85.00
2017-12-01T05:26:06.459Z,85.10
2017-12-01T05:28:36.765Z,85.10
2017-12-01T05:31:07.294Z,85.30
2017-12-01T05:33:38.800Z,85.20
2017-12-01T05:36:08.624Z,85.80
2017-12-01T05:38:38.464Z,85.80
2017-12-01T05:41:08.667Z,85.60
2017-12-01T05:43:38.283Z,85.60
2017-12-01T05:46:08.081Z,85.60
2017-12-01T05:48:38.135Z,85.50
2017-12-01T05:51:09.558Z,85.40
2017-12-01T05:53:40.042Z,85.40
2017-12-01T05:56:10.203Z,85.30
2017-12-01T05:58:40.726Z,85.30
2017-12-01T06:01:11.400Z,85.30
2017-12-01T06:03:41.737Z,85.30
2017-12-01T06:06:11.559Z,85.30
2017-12-01T06:08:41.618Z,85.30
2017-12-01T06:11:12.958Z,85.30
2017-12-01T06:13:42.870Z,85.20
2017-12-01T06:16:13.516Z,85.20
2017-12-01T06:18:43.907Z,84.60
2017-12-01T06:21:14.134Z,85.10
2017-12-01T06:23:43.962Z,85.10
2017-12-01T06:26:13.835Z,85.10
2017-12-01T06:28:44.411Z,85.20
2017-12-01T06:31:15.141Z,86.00
2017-12-01T06:33:46.413Z,85.30
2017-12-01T06:36:17.632Z,85.30
2017-12-01T06:38:48.775Z,85.30
2017-12-01T06:41:18.733Z,85.20
2017-12-01T06:43:49.725Z,85.20
2017-12-01T06:46:19.942Z,85.20
2017-12-01T06:48:50.610Z,85.20
2017-12-01T06:51:21.259Z,85.20
2017-12-01T06:53:51.581Z,85.20
2017-12-01T06:56:21.209Z,85.20
2017-12-01T06:58:50.959Z,85.20
2017-12-01T07:01:21.918Z,85.20
2017-12-01T07:03:51.754Z,85.30
2017-12-01T07:06:21.617Z,85.20
2017-12-01T07:08:51.340Z,85.20
2017-12-01T07:11:21.243Z,85.20
2017-12-01T07:13:53.138Z,85.20
2017-12-01T07:16:25.715Z,85.30
2017-12-01T07:18:57.353Z,85.20
2017-12-01T07:21:30.663Z,85.20
2017-12-01T07:24:01.193Z,85.20
2017-12-01T07:27:08.015Z,85.20
2017-12-01T07:29:38.471Z,85.10
2017-12-01T07:32:08.971Z,85.20
2017-12-01T07:34:38.719Z,85.20
2017-12-01T07:37:08.509Z,85.20
2017-12-01T07:39:39.790Z,85.20
2017-12-01T07:42:09.697Z,85.20
2017-12-01T07:44:41.602Z,85.30
2017-12-01T07:47:11.855Z,85.20
2017-12-01T07:49:41.687Z,85.10
2017-12-01T07:52:12.092Z,85.10
2017-12-01T07:54:43.497Z,85.20
2017-12-01T07:57:15.043Z,85.20
2017-12-01T07:59:45.726Z,85.10
2017-12-01T08:02:15.665Z,85.20
2017-12-01T08:04:45.961Z,85.20
2017-12-01T08:07:15.876Z,85.20
2017-12-01T08:09:46.325Z,85.20
2017-12-01T08:12:17.136Z,85.40
2017-12-01T08:14:47.191Z,85.10
2017-12-01T08:17:34.248Z,85.10
2017-12-01T08:20:04.806Z,85.20
2017-12-01T08:23:06.489Z,85.20
2017-12-01T08:25:37.705Z,85.20
2017-12-01T08:28:10.077Z,85.20
2017-12-01T08:30:40.604Z,85.40
2017-12-01T08:33:10.242Z,85.30
2017-12-01T08:35:40.554Z,85.30
2017-12-01T08:38:10.936Z,85.30
2017-12-01T08:40:41.539Z,85.30
2017-12-01T08:43:11.980Z,85.30
2017-12-01T08:45:41.656Z,85.30
2017-12-01T08:48:12.337Z,85.50
2017-12-01T08:50:41.969Z,85.40
2017-12-01T08:53:11.811Z,85.50
2017-12-01T08:55:42.541Z,85.40
2017-12-01T08:58:13.345Z,85.50
2017-12-01T09:00:43.970Z,85.40
2017-12-01T09:03:14.614Z,85.40
2017-12-01T09:05:44.318Z,85.40
2017-12-01T09:08:15.374Z,85.40
2017-12-01T09:10:45.336Z,85.40
2017-12-01T09:13:15.083Z,85.50
2017-12-01T09:15:44.998Z,85.50
2017-12-01T09:18:14.639Z,85.40
2017-12-01T09:20:46.394Z,85.60
2017-12-01T09:23:17.006Z,85.50
2017-12-01T09:25:46.834Z,85.50
2017-12-01T09:28:17.248Z,85.50
2017-12-01T09:30:47.043Z,85.40
2017-12-01T09:33:16.773Z,85.50
2017-12-01T09:35:47.748Z,86.20
2017-12-01T09:38:17.436Z,85.50
2017-12-01T09:40:48.030Z,85.40
2017-12-01T09:43:18.381Z,85.40
2017-12-01T09:45:48.193Z,85.30
2017-12-01T09:48:19.206Z,85.30
2017-12-01T09:50:48.918Z,85.20
2017-12-01T09:53:18.619Z,85.40
2017-12-01T09:55:48.342Z,85.40
2017-12-01T09:58:17.920Z,85.50
2017-12-01T10:00:47.760Z,86.10
2017-12-01T10:03:18.284Z,85.50
2017-12-01T10:05:47.990Z,85.40
2017-12-01T10:08:19.339Z,85.50
2017-12-01T10:10:49.870Z,85.50
2017-12-01T10:13:25.170Z,85.40
2017-12-01T10:15:55.102Z,85.40
2017-12-01T10:18:24.968Z,85.30
2017-12-01T10:20:55.793Z,85.10
2017-12-01T10:23:26.348Z,85.90
2017-12-01T10:25:56.193Z,85.10
2017-12-01T10:28:28.277Z,85.10
2017-12-01T10:30:58.130Z,85.10
2017-12-01T10:33:28.023Z,85.20
2017-12-01T10:35:58.573Z,85.20
2017-12-01T10:38:28.470Z,85.20
2017-12-01T10:40:59.185Z,85.50
2017-12-01T10:43:29.613Z,85.50
2017-12-01T10:45:59.292Z,85.30
2017-12-01T10:48:29.565Z,85.20
2017-12-01T10:51:01.387Z,85.00
2017-12-01T10:53:32.885Z,85.00
2017-12-01T10:56:06.268Z,85.00
2017-12-01T10:58:36.935Z,84.70
2017-12-01T11:01:08.562Z,84.80
2017-12-01T11:03:38.381Z,85.40
2017-12-01T11:06:08.051Z,84.60
2017-12-01T11:08:37.677Z,84.60
2017-12-01T11:11:09.059Z,84.40
2017-12-01T11:13:41.085Z,84.20
2017-12-01T11:16:11.043Z,84.40
2017-12-01T11:18:40.958Z,84.50
2017-12-01T11:21:11.901Z,84.50
2017-12-01T11:23:41.752Z,84.40
2017-12-01T11:26:13.094Z,84.50
2017-12-01T11:28:44.112Z,84.50
2017-12-01T11:31:14.160Z,84.40
2017-12-01T11:33:44.608Z,84.30
2017-12-01T11:36:15.197Z,84.30
2017-12-01T11:38:45.885Z,84.20
2017-12-01T11:41:15.652Z,84.20
2017-12-01T11:43:45.372Z,84.20
2017-12-01T11:46:15.073Z,84.50
2017-12-01T11:48:45.045Z,84.60
2017-12-01T11:51:16.095Z,85.10
2017-12-01T11:53:45.933Z,84.80
2017-12-01T11:56:15.882Z,84.70
2017-12-01T11:58:46.406Z,84.70
2017-12-01T12:01:16.403Z,84.70
2017-12-01T12:03:47.133Z,84.50
2017-12-01T12:06:16.761Z,84.60
2017-12-01T12:08:47.134Z,84.60
2017-12-01T12:11:17.236Z,84.80
2017-12-01T12:13:47.608Z,84.80
2017-12-01T12:16:17.526Z,87.30
2017-12-01T12:18:47.652Z,86.00
2017-12-01T12:21:17.324Z,85.40
2017-12-01T12:23:47.223Z,85.70
2017-12-01T12:26:18.124Z,85.80
2017-12-01T12:28:48.353Z,85.50
2017-12-01T12:31:18.032Z,85.30
2017-12-01T12:33:47.945Z,85.10
2017-12-01T12:36:17.787Z,85.00
2017-12-01T12:38:49.017Z,85.00
2017-12-01T12:41:18.916Z,85.00
2017-12-01T12:43:49.442Z,85.20
2017-12-01T12:46:20.745Z,85.50
2017-12-01T12:48:50.708Z,85.40
2017-12-01T12:51:20.793Z,85.20
2017-12-01T12:53:52.174Z,85.00
2017-12-01T12:56:22.911Z,85.00
2017-12-01T12:58:52.668Z,85.00
2017-12-01T13:01:23.608Z,85.30
2017-12-01T13:03:54.500Z,84.70
2017-12-01T13:06:26.048Z,84.80
2017-12-01T13:08:56.123Z,84.80
2017-12-01T13:11:31.554Z,84.60
2017-12-01T13:14:01.610Z,84.50
2017-12-01T13:16:31.569Z,84.60
2017-12-01T13:19:02.375Z,84.60
2017-12-01T13:21:32.295Z,84.60
2017-12-01T13:24:02.820Z,84.60
2017-12-01T13:26:34.308Z,84.70
2017-12-01T13:29:04.086Z,84.80
2017-12-01T13:31:34.192Z,84.80
2017-12-01T13:34:04.462Z,84.80
2017-12-01T13:36:35.920Z,85.10
2017-12-01T13:39:06.416Z,85.10
2017-12-01T13:41:36.519Z,85.10
2017-12-01T13:44:06.433Z,85.00
2017-12-01T13:46:36.410Z,84.90
2017-12-01T13:49:06.474Z,85.00
2017-12-01T13:51:36.537Z,84.90
2017-12-01T13:54:06.509Z,84.70
2017-12-01T13:56:36.413Z,84.70
2017-12-01T13:59:06.328Z,84.90
2017-12-01T14:01:36.652Z,85.10
2017-12-01T14:04:06.784Z,85.20
2017-12-01T14:06:37.240Z,85.10
2017-12-01T14:09:07.008Z,85.10
2017-12-01T14:11:37.128Z,85.20
2017-12-01T14:14:06.985Z,85.60
2017-12-01T14:16:37.572Z,85.70
2017-12-01T14:19:07.829Z,85.80
2017-12-01T14:21:38.840Z,85.70
2017-12-01T14:24:09.569Z,85.70
2017-12-01T14:26:39.895Z,85.60
2017-12-01T14:29:10.837Z,85.60
2017-12-01T14:31:41.573Z,85.50
2017-12-01T14:34:11.477Z,85.70
2017-12-01T14:36:41.315Z,86.50
2017-12-01T14:39:11.919Z,85.90
2017-12-01T14:41:42.038Z,85.90
2017-12-01T14:44:11.953Z,85.70
2017-12-01T14:46:41.754Z,85.60
2017-12-01T14:49:11.511Z,85.40
2017-12-01T14:51:41.916Z,85.40
2017-12-01T14:54:11.813Z,85.50
2017-12-01T14:56:41.726Z,85.40
2017-12-01T14:59:12.605Z,85.20
2017-12-01T15:01:43.019Z,85.20
2017-12-01T15:04:14.089Z,85.30
2017-12-01T15:06:43.843Z,85.40
2017-12-01T15:09:13.746Z,85.20
2017-12-01T15:11:43.466Z,85.20
2017-12-01T15:14:13.179Z,85.30
2017-12-01T15:16:42.811Z,85.10
2017-12-01T15:19:13.329Z,85.30
2017-12-01T15:21:43.152Z,85.20
2017-12-01T15:24:13.304Z,85.30
2017-12-01T15:26:43.082Z,85.60
2017-12-01T15:29:13.538Z,85.90
2017-12-01T15:31:44.224Z,86.30
2017-12-01T15:34:14.805Z,86.90
2017-12-01T15:36:44.584Z,87.20
2017-12-01T15:39:15.774Z,86.40
2017-12-01T15:41:45.693Z,86.30
2017-12-01T15:44:15.629Z,85.70
2017-12-01T15:46:45.542Z,85.30
2017-12-01T15:49:15.442Z,84.60
2017-12-01T15:51:45.156Z,84.70
2017-12-01T15:54:14.801Z,84.60
2017-12-01T15:56:45.129Z,84.30
2017-12-01T15:59:15.438Z,84.00
2017-12-01T16:01:45.240Z,84.00
2017-12-01T16:04:15.216Z,83.90
2017-12-01T16:06:45.127Z,83.70
2017-12-01T16:09:15.180Z,83.60
2017-12-01T16:11:45.302Z,83.50
2017-12-01T16:14:15.140Z,83.60
2017-12-01T16:16:46.122Z,83.30
2017-12-01T16:19:15.923Z,83.30
2017-12-01T16:21:45.777Z,83.20
2017-12-01T16:24:15.901Z,83.10
2017-12-01T16:26:45.732Z,83.00
2017-12-01T16:29:15.927Z,82.90
2017-12-01T16:31:46.891Z,82.90
2017-12-01T16:34:16.688Z,82.80
2017-12-01T16:36:46.488Z,82.80
2017-12-01T16:39:16.617Z,82.80
2017-12-01T16:41:46.319Z,82.80
2017-12-01T16:44:16.017Z,82.80
2017-12-01T16:46:45.941Z,82.70
2017-12-01T16:49:15.794Z,82.80
2017-12-01T16:51:46.618Z,82.60
2017-12-01T16:54:17.328Z,82.60
2017-12-01T16:56:48.258Z,82.60
2017-12-01T16:59:18.309Z,82.50
2017-12-01T17:01:49.249Z,82.60
2017-12-01T17:04:20.264Z,82.60
2017-12-01T17:06:50.373Z,82.50
2017-12-01T17:09:20.369Z,82.60
2017-12-01T17:11:51.918Z,82.60
2017-12-01T17:14:21.841Z,82.50
2017-12-01T17:16:51.706Z,82.40
2017-12-01T17:19:22.409Z,82.60
2017-12-01T17:21:52.241Z,82.60
2017-12-01T17:24:22.765Z,83.40
2017-12-01T17:26:53.381Z,82.80
2017-12-01T17:29:23.082Z,82.50
2017-12-01T17:31:52.997Z,82.50
2017-12-01T17:34:23.045Z,82.70
2017-12-01T17:36:53.950Z,82.90
2017-12-01T17:39:24.839Z,82.70
2017-12-01T17:41:55.058Z,82.60
2017-12-01T17:44:25.027Z,82.60
2017-12-01T17:46:55.214Z,82.60
2017-12-01T17:49:25.263Z,82.80
2017-12-01T17:51:55.329Z,82.70
2017-12-01T17:54:25.295Z,82.70
2017-12-01T17:56:55.308Z,82.80
2017-12-01T17:59:25.771Z,82.60
2017-12-01T18:01:56.068Z,82.60
2017-12-01T18:04:26.724Z,82.90
2017-12-01T18:06:57.539Z,82.90
2017-12-01T18:09:27.363Z,82.90
2017-12-01T18:11:58.303Z,82.90
2017-12-01T18:14:28.894Z,82.80
2017-12-01T18:16:59.035Z,82.70
2017-12-01T18:19:29.073Z,82.70
2017-12-01T18:21:59.001Z,82.60
2017-12-01T18:24:29.028Z,82.90
2017-12-01T18:26:58.989Z,82.90
2017-12-01T18:29:29.216Z,82.80
2017-12-01T18:31:59.340Z,82.90
2017-12-01T18:34:29.242Z,82.90
2017-12-01T18:36:59.055Z,82.80
2017-12-01T18:39:30.319Z,82.80
2017-12-01T18:42:00.424Z,82.90
2017-12-01T18:44:30.337Z,82.80
2017-12-01T18:47:01.104Z,83.50
2017-12-01T18:49:31.943Z,82.90
2017-12-01T18:52:02.742Z,83.00
2017-12-01T18:54:32.862Z,83.00
2017-12-01T18:57:02.716Z,82.90
2017-12-01T18:59:32.607Z,82.90
2017-12-01T19:02:02.614Z,83.00
2017-12-01T19:04:34.259Z,82.90
2017-12-01T19:07:04.275Z,82.80
2017-12-01T19:09:35.157Z,82.80
2017-12-01T19:12:05.126Z,82.90
2017-12-01T19:14:34.985Z,82.80
2017-12-01T19:17:04.862Z,82.90
2017-12-01T19:19:35.484Z,82.70
2017-12-01T19:22:05.399Z,82.90
2017-12-01T19:24:35.525Z,82.80
2017-12-01T19:27:06.662Z,82.80
2017-12-01T19:29:36.643Z,82.90
2017-12-01T19:32:06.692Z,82.70
2017-12-01T19:34:36.833Z,82.90
2017-12-01T19:37:07.139Z,82.60
2017-12-01T19:39:36.990Z,82.70
2017-12-01T19:42:07.711Z,82.70
2017-12-01T19:44:38.652Z,82.50
2017-12-01T19:47:09.459Z,82.60
2017-12-01T19:49:39.557Z,82.60
2017-12-01T19:52:10.401Z,82.70
2017-12-01T19:54:40.565Z,82.70
2017-12-01T19:57:11.459Z,82.70
2017-12-01T19:59:41.659Z,82.70
2017-12-01T20:02:11.747Z,82.70
2017-12-01T20:04:41.647Z,82.60
2017-12-01T20:07:12.188Z,82.50
2017-12-01T20:09:43.802Z,82.60
2017-12-01T20:12:13.716Z,82.60
2017-12-01T20:14:44.210Z,82.70
2017-12-01T20:17:14.088Z,82.60
2017-12-01T20:19:44.817Z,82.70
2017-12-01T20:22:15.572Z,82.60
2017-12-01T20:24:45.752Z,82.60
2017-12-01T20:27:17.716Z,82.60
2017-12-01T20:29:48.242Z,82.60
2017-12-01T20:32:18.969Z,82.60
2017-12-01T20:34:49.407Z,82.60
2017-12-01T20:37:19.549Z,82.60
2017-12-01T20:39:50.352Z,82.70
2017-12-01T20:42:20.405Z,82.70
2017-12-01T20:44:50.316Z,82.70
2017-12-01T20:47:20.556Z,82.70
2017-12-01T20:49:50.416Z,82.80
2017-12-01T20:52:20.387Z,82.70
2017-12-01T20:54:50.452Z,82.60
2017-12-01T20:57:20.984Z,82.40
2017-12-01T20:59:51.854Z,82.50
2017-12-01T21:02:22.717Z,82.60
2017-12-01T21:04:52.564Z,82.50
2017-12-01T21:07:22.393Z,82.50
2017-12-01T21:09:53.416Z,82.50
2017-12-01T21:12:23.266Z,82.50
2017-12-01T21:14:53.858Z,82.60
2017-12-01T21:17:24.387Z,82.60
2017-12-01T21:19:54.473Z,82.70
2017-12-01T21:22:24.424Z,82.70
2017-12-01T21:24:54.539Z,82.70
2017-12-01T21:27:26.194Z,82.50
2017-12-01T21:29:56.209Z,82.50
2017-12-01T21:32:26.175Z,82.70
2017-12-01T21:34:56.113Z,82.70
2017-12-01T21:37:26.567Z,83.40
2017-12-01T21:39:56.371Z,82.60
2017-12-01T21:42:26.605Z,82.50
2017-12-01T21:44:58.197Z,82.60
2017-12-01T21:47:28.073Z,82.60
2017-12-01T21:49:59.619Z,83.20
2017-12-01T21:52:29.328Z,82.40
2017-12-01T21:54:59.252Z,82.30
2017-12-01T21:57:29.959Z,82.40
2017-12-01T21:59:59.965Z,82.20
2017-12-01T22:02:30.016Z,82.30
2017-12-01T22:05:00.545Z,82.20
2017-12-01T22:07:30.824Z,82.40
2017-12-01T22:10:02.212Z,82.20
2017-12-01T22:12:32.332Z,82.20
2017-12-01T22:15:02.190Z,82.20
2017-12-01T22:17:32.175Z,82.00
2017-12-01T22:20:02.284Z,82.10
2017-12-01T22:22:32.012Z,82.10
2017-12-01T22:25:01.700Z,81.90
2017-12-01T22:27:31.660Z,82.10
2017-12-01T22:30:01.530Z,82.10
2017-12-01T22:32:33.076Z,82.00
2017-12-01T22:35:04.471Z,81.90
2017-12-01T22:37:34.551Z,81.80
2017-12-01T22:40:04.661Z,82.00
2017-12-01T22:42:35.012Z,82.10
2017-12-01T22:45:05.663Z,82.10
2017-12-01T22:47:35.783Z,82.00
2017-12-01T22:50:06.506Z,81.90
2017-12-01T22:52:37.226Z,82.00
2017-12-01T22:55:08.489Z,82.30
2017-12-01T22:57:38.286Z,81.80
2017-12-01T23:00:09.095Z,82.00
2017-12-01T23:02:40.446Z,81.70
2017-12-01T23:05:10.492Z,81.70
2017-12-01T23:07:41.089Z,81.60
2017-12-01T23:10:12.979Z,81.60
2017-12-01T23:12:43.884Z,81.60
2017-12-01T23:15:13.920Z,81.50
2017-12-01T23:17:44.024Z,81.50
2017-12-01T23:20:14.330Z,81.40
2017-12-01T23:22:44.374Z,81.40
2017-12-01T23:25:14.176Z,81.30
2017-12-01T23:27:44.460Z,81.40
2017-12-01T23:30:14.351Z,81.50
2017-12-01T23:32:44.328Z,81.30
2017-12-01T23:35:14.241Z,81.50
2017-12-01T23:37:44.363Z,81.30
2017-12-01T23:40:14.274Z,81.40
2017-12-01T23:42:44.308Z,81.50
2017-12-01T23:45:14.230Z,81.30
2017-12-01T23:47:43.944Z,81.40
2017-12-01T23:50:13.654Z,81.50
2017-12-01T23:52:44.466Z,82.00
2017-12-01T23:55:15.192Z,81.30
2017-12-01T23:57:45.112Z,80.90
